sensor_id;sensor_type;location;lat;lon;timestamp;temperature;humidity
19206;DHT22;59358;52.134;5.596;2024-02-26T00:01:55;5.50;99.90
19206;DHT22;59358;52.134;5.596;2024-02-26T00:04:22;5.50;99.90
19206;DHT22;59358;52.134;5.596;2024-02-26T00:06:48;5.50;99.90
19206;DHT22;59358;52.134;5.596;2024-02-26T00:09:16;5.50;99.90
19206;DHT22;59358;52.134;5.596;2024-02-26T00:11:43;5.50;99.90
19206;DHT22;59358;52.134;5.596;2024-02-26T00:14:10;5.40;99.90
19206;DHT22;59358;52.134;5.596;2024-02-26T00:16:41;5.40;99.90
19206;DHT22;59358;52.134;5.596;2024-02-26T00:19:08;5.40;99.90
19206;DHT22;59358;52.134;5.596;2024-02-26T00:21:34;5.30;99.90
19206;DHT22;59358;52.134;5.596;2024-02-26T00:24:01;5.30;99.90
19206;DHT22;59358;52.134;5.596;2024-02-26T00:26:28;5.20;99.90
19206;DHT22;59358;52.134;5.596;2024-02-26T00:28:55;5.20;99.90
19206;DHT22;59358;52.134;5.596;2024-02-26T00:31:21;5.20;99.90
19206;DHT22;59358;52.134;5.596;2024-02-26T00:33:49;5.20;99.90
19206;DHT22;59358;52.134;5.596;2024-02-26T00:36:16;5.20;99.90
19206;DHT22;59358;52.134;5.596;2024-02-26T00:38:44;5.20;99.90
19206;DHT22;59358;52.134;5.596;2024-02-26T00:41:16;5.10;99.90
19206;DHT22;59358;52.134;5.596;2024-02-26T00:43:42;5.10;99.90
19206;DHT22;59358;52.134;5.596;2024-02-26T00:46:09;5.10;99.90
19206;DHT22;59358;52.134;5.596;2024-02-26T00:48:36;5.10;99.90
19206;DHT22;59358;52.134;5.596;2024-02-26T00:51:05;5.10;99.90
19206;DHT22;59358;52.134;5.596;2024-02-26T00:53:33;5.00;99.90
19206;DHT22;59358;52.134;5.596;2024-02-26T00:56:00;5.00;99.90
19206;DHT22;59358;52.134;5.596;2024-02-26T00:58:26;5.00;99.90
19206;DHT22;59358;52.134;5.596;2024-02-26T01:00:53;5.00;99.90
19206;DHT22;59358;52.134;5.596;2024-02-26T01:03:20;5.00;99.90
19206;DHT22;59358;52.134;5.596;2024-02-26T01:05:47;4.90;99.90
19206;DHT22;59358;52.134;5.596;2024-02-26T01:08:15;5.00;99.90
19206;DHT22;59358;52.134;5.596;2024-02-26T01:10:42;4.90;99.90
19206;DHT22;59358;52.134;5.596;2024-02-26T01:13:09;4.90;99.90
19206;DHT22;59358;52.134;5.596;2024-02-26T01:15:35;4.90;99.90
19206;DHT22;59358;52.134;5.596;2024-02-26T01:18:02;4.90;99.90
19206;DHT22;59358;52.134;5.596;2024-02-26T01:20:29;4.90;99.90
19206;DHT22;59358;52.134;5.596;2024-02-26T01:22:56;4.90;99.90
19206;DHT22;59358;52.134;5.596;2024-02-26T01:25:24;4.90;99.90
19206;DHT22;59358;52.134;5.596;2024-02-26T01:27:51;4.80;99.90
19206;DHT22;59358;52.134;5.596;2024-02-26T01:30:18;4.90;99.90
19206;DHT22;59358;52.134;5.596;2024-02-26T01:32:44;4.90;99.90
19206;DHT22;59358;52.134;5.596;2024-02-26T01:35:11;4.90;99.90
19206;DHT22;59358;52.134;5.596;2024-02-26T01:37:38;4.90;99.90
19206;DHT22;59358;52.134;5.596;2024-02-26T01:40:06;4.90;99.90
19206;DHT22;59358;52.134;5.596;2024-02-26T01:42:38;4.90;99.90
19206;DHT22;59358;52.134;5.596;2024-02-26T01:45:05;4.90;99.90
19206;DHT22;59358;52.134;5.596;2024-02-26T01:47:32;5.00;99.90
19206;DHT22;59358;52.134;5.596;2024-02-26T01:49:59;5.00;99.90
19206;DHT22;59358;52.134;5.596;2024-02-26T01:52:26;5.10;99.90
19206;DHT22;59358;52.134;5.596;2024-02-26T01:54:53;5.10;99.90
19206;DHT22;59358;52.134;5.596;2024-02-26T01:57:20;5.10;99.90
19206;DHT22;59358;52.134;5.596;2024-02-26T01:59:48;5.10;99.90
19206;DHT22;59358;52.134;5.596;2024-02-26T02:02:15;5.20;99.90
19206;DHT22;59358;52.134;5.596;2024-02-26T02:04:42;5.20;99.90
19206;DHT22;59358;52.134;5.596;2024-02-26T02:07:09;5.30;99.90
19206;DHT22;59358;52.134;5.596;2024-02-26T02:09:36;5.30;99.90
19206;DHT22;59358;52.134;5.596;2024-02-26T02:12:04;5.30;99.90
19206;DHT22;59358;52.134;5.596;2024-02-26T02:14:32;5.30;99.90
19206;DHT22;59358;52.134;5.596;2024-02-26T02:17:00;5.40;99.90
19206;DHT22;59358;52.134;5.596;2024-02-26T02:19:27;5.40;99.90
19206;DHT22;59358;52.134;5.596;2024-02-26T02:21:55;5.40;99.90
19206;DHT22;59358;52.134;5.596;2024-02-26T02:24:22;5.40;99.90
19206;DHT22;59358;52.134;5.596;2024-02-26T02:26:49;5.40;99.90
19206;DHT22;59358;52.134;5.596;2024-02-26T02:29:15;5.50;99.90
19206;DHT22;59358;52.134;5.596;2024-02-26T02:31:43;5.50;99.90
19206;DHT22;59358;52.134;5.596;2024-02-26T02:34:10;5.50;99.90
19206;DHT22;59358;52.134;5.596;2024-02-26T02:36:48;5.50;99.90
19206;DHT22;59358;52.134;5.596;2024-02-26T02:39:17;5.50;99.90
19206;DHT22;59358;52.134;5.596;2024-02-26T02:41:44;5.50;99.90
19206;DHT22;59358;52.134;5.596;2024-02-26T02:44:10;5.50;99.90
19206;DHT22;59358;52.134;5.596;2024-02-26T02:46:37;5.50;99.90
19206;DHT22;59358;52.134;5.596;2024-02-26T02:49:07;5.40;99.90
19206;DHT22;59358;52.134;5.596;2024-02-26T02:51:34;5.40;99.90
19206;DHT22;59358;52.134;5.596;2024-02-26T02:54:00;5.40;99.90
19206;DHT22;59358;52.134;5.596;2024-02-26T02:56:29;5.40;99.90
19206;DHT22;59358;52.134;5.596;2024-02-26T02:58:56;5.40;99.90
19206;DHT22;59358;52.134;5.596;2024-02-26T03:01:22;5.40;99.90
19206;DHT22;59358;52.134;5.596;2024-02-26T03:03:49;5.40;99.90
19206;DHT22;59358;52.134;5.596;2024-02-26T03:06:16;5.50;99.90
19206;DHT22;59358;52.134;5.596;2024-02-26T03:08:43;5.50;99.90
19206;DHT22;59358;52.134;5.596;2024-02-26T03:11:13;5.50;99.90
19206;DHT22;59358;52.134;5.596;2024-02-26T03:13:42;5.50;99.90
19206;DHT22;59358;52.134;5.596;2024-02-26T03:16:09;5.50;99.90
19206;DHT22;59358;52.134;5.596;2024-02-26T03:18:38;5.50;99.90
19206;DHT22;59358;52.134;5.596;2024-02-26T03:21:04;5.50;99.90
19206;DHT22;59358;52.134;5.596;2024-02-26T03:23:31;5.50;99.90
19206;DHT22;59358;52.134;5.596;2024-02-26T03:26:03;5.50;99.90
19206;DHT22;59358;52.134;5.596;2024-02-26T03:28:30;5.50;99.90
19206;DHT22;59358;52.134;5.596;2024-02-26T03:31:00;5.50;99.90
19206;DHT22;59358;52.134;5.596;2024-02-26T03:33:27;5.50;99.90
19206;DHT22;59358;52.134;5.596;2024-02-26T03:35:54;5.40;99.90
19206;DHT22;59358;52.134;5.596;2024-02-26T03:38:21;5.40;99.90
19206;DHT22;59358;52.134;5.596;2024-02-26T03:40:47;5.40;99.90
19206;DHT22;59358;52.134;5.596;2024-02-26T03:43:14;5.40;99.90
19206;DHT22;59358;52.134;5.596;2024-02-26T03:45:41;5.30;99.90
19206;DHT22;59358;52.134;5.596;2024-02-26T03:48:09;5.30;99.90
19206;DHT22;59358;52.134;5.596;2024-02-26T03:50:36;5.30;99.90
19206;DHT22;59358;52.134;5.596;2024-02-26T03:53:03;5.30;99.90
19206;DHT22;59358;52.134;5.596;2024-02-26T03:55:30;5.30;99.90
19206;DHT22;59358;52.134;5.596;2024-02-26T03:57:57;5.20;99.90
19206;DHT22;59358;52.134;5.596;2024-02-26T04:00:24;5.30;99.90
19206;DHT22;59358;52.134;5.596;2024-02-26T04:02:51;5.30;99.90
19206;DHT22;59358;52.134;5.596;2024-02-26T04:05:20;5.30;99.90
19206;DHT22;59358;52.134;5.596;2024-02-26T04:07:46;5.30;99.90
19206;DHT22;59358;52.134;5.596;2024-02-26T04:10:13;5.30;99.90
19206;DHT22;59358;52.134;5.596;2024-02-26T04:12:40;5.30;99.90
19206;DHT22;59358;52.134;5.596;2024-02-26T04:15:08;5.30;99.90
19206;DHT22;59358;52.134;5.596;2024-02-26T04:17:36;5.30;99.90
19206;DHT22;59358;52.134;5.596;2024-02-26T04:20:05;5.30;99.90
19206;DHT22;59358;52.134;5.596;2024-02-26T04:22:34;5.30;99.90
19206;DHT22;59358;52.134;5.596;2024-02-26T04:25:00;5.30;99.90
19206;DHT22;59358;52.134;5.596;2024-02-26T04:27:28;5.30;99.90
19206;DHT22;59358;52.134;5.596;2024-02-26T04:29:55;5.30;99.90
19206;DHT22;59358;52.134;5.596;2024-02-26T04:32:22;5.40;99.90
19206;DHT22;59358;52.134;5.596;2024-02-26T04:34:48;5.40;99.90
19206;DHT22;59358;52.134;5.596;2024-02-26T04:37:15;5.40;99.90
19206;DHT22;59358;52.134;5.596;2024-02-26T04:39:43;5.40;99.90
19206;DHT22;59358;52.134;5.596;2024-02-26T04:42:11;5.40;99.90
19206;DHT22;59358;52.134;5.596;2024-02-26T04:44:38;5.40;99.90
19206;DHT22;59358;52.134;5.596;2024-02-26T04:47:04;5.40;99.90
19206;DHT22;59358;52.134;5.596;2024-02-26T04:49:33;5.40;99.90
19206;DHT22;59358;52.134;5.596;2024-02-26T04:52:00;5.40;99.90
19206;DHT22;59358;52.134;5.596;2024-02-26T04:54:27;5.30;99.90
19206;DHT22;59358;52.134;5.596;2024-02-26T04:56:55;5.30;99.90
19206;DHT22;59358;52.134;5.596;2024-02-26T04:59:22;5.30;99.90
19206;DHT22;59358;52.134;5.596;2024-02-26T05:01:48;5.30;99.90
19206;DHT22;59358;52.134;5.596;2024-02-26T05:04:17;5.30;99.90
19206;DHT22;59358;52.134;5.596;2024-02-26T05:06:43;5.30;99.90
19206;DHT22;59358;52.134;5.596;2024-02-26T05:09:10;5.20;99.90
19206;DHT22;59358;52.134;5.596;2024-02-26T05:11:37;5.30;99.90
19206;DHT22;59358;52.134;5.596;2024-02-26T05:14:06;5.30;99.90
19206;DHT22;59358;52.134;5.596;2024-02-26T05:16:32;5.30;99.90
19206;DHT22;59358;52.134;5.596;2024-02-26T05:18:59;5.30;99.90
19206;DHT22;59358;52.134;5.596;2024-02-26T05:21:26;5.30;99.90
19206;DHT22;59358;52.134;5.596;2024-02-26T05:23:53;5.30;99.90
19206;DHT22;59358;52.134;5.596;2024-02-26T05:26:20;5.40;99.90
19206;DHT22;59358;52.134;5.596;2024-02-26T05:28:47;5.30;99.90
19206;DHT22;59358;52.134;5.596;2024-02-26T05:31:16;5.40;99.90
19206;DHT22;59358;52.134;5.596;2024-02-26T05:33:43;5.30;99.90
19206;DHT22;59358;52.134;5.596;2024-02-26T05:36:10;5.40;99.90
19206;DHT22;59358;52.134;5.596;2024-02-26T05:38:37;5.40;99.90
19206;DHT22;59358;52.134;5.596;2024-02-26T05:41:03;5.40;99.90
19206;DHT22;59358;52.134;5.596;2024-02-26T05:43:31;5.40;99.90
19206;DHT22;59358;52.134;5.596;2024-02-26T05:45:58;5.40;99.90
19206;DHT22;59358;52.134;5.596;2024-02-26T05:48:26;5.40;99.90
19206;DHT22;59358;52.134;5.596;2024-02-26T05:50:53;5.40;99.90
19206;DHT22;59358;52.134;5.596;2024-02-26T05:53:20;5.30;99.90
19206;DHT22;59358;52.134;5.596;2024-02-26T05:55:46;5.30;99.90
19206;DHT22;59358;52.134;5.596;2024-02-26T05:58:13;5.40;99.90
19206;DHT22;59358;52.134;5.596;2024-02-26T06:00:40;5.40;99.90
19206;DHT22;59358;52.134;5.596;2024-02-26T06:03:07;5.40;99.90
19206;DHT22;59358;52.134;5.596;2024-02-26T06:05:35;5.40;99.90
19206;DHT22;59358;52.134;5.596;2024-02-26T06:08:02;5.30;99.90
19206;DHT22;59358;52.134;5.596;2024-02-26T06:10:29;5.30;99.90
19206;DHT22;59358;52.134;5.596;2024-02-26T06:12:56;5.30;99.90
19206;DHT22;59358;52.134;5.596;2024-02-26T06:15:22;5.30;99.90
19206;DHT22;59358;52.134;5.596;2024-02-26T06:17:49;5.30;99.90
19206;DHT22;59358;52.134;5.596;2024-02-26T06:20:16;5.30;99.90
19206;DHT22;59358;52.134;5.596;2024-02-26T06:22:44;5.30;99.90
19206;DHT22;59358;52.134;5.596;2024-02-26T06:25:11;5.30;99.90
19206;DHT22;59358;52.134;5.596;2024-02-26T06:27:38;5.30;99.90
19206;DHT22;59358;52.134;5.596;2024-02-26T06:30:05;5.30;99.90
19206;DHT22;59358;52.134;5.596;2024-02-26T06:32:34;5.40;99.90
19206;DHT22;59358;52.134;5.596;2024-02-26T06:35:00;5.30;99.90
19206;DHT22;59358;52.134;5.596;2024-02-26T06:37:32;5.30;99.90
19206;DHT22;59358;52.134;5.596;2024-02-26T06:40:00;5.30;99.90
19206;DHT22;59358;52.134;5.596;2024-02-26T06:42:29;5.30;99.90
19206;DHT22;59358;52.134;5.596;2024-02-26T06:44:57;5.30;99.90
19206;DHT22;59358;52.134;5.596;2024-02-26T06:47:24;5.30;99.90
19206;DHT22;59358;52.134;5.596;2024-02-26T06:49:51;5.30;99.90
19206;DHT22;59358;52.134;5.596;2024-02-26T06:52:18;5.30;99.90
19206;DHT22;59358;52.134;5.596;2024-02-26T06:54:44;5.30;99.90
19206;DHT22;59358;52.134;5.596;2024-02-26T06:57:15;5.30;99.90
19206;DHT22;59358;52.134;5.596;2024-02-26T06:59:41;5.30;99.90
19206;DHT22;59358;52.134;5.596;2024-02-26T07:02:11;5.40;99.90
19206;DHT22;59358;52.134;5.596;2024-02-26T07:04:38;5.40;99.90
19206;DHT22;59358;52.134;5.596;2024-02-26T07:07:04;5.30;99.90
19206;DHT22;59358;52.134;5.596;2024-02-26T07:09:31;5.50;99.90
19206;DHT22;59358;52.134;5.596;2024-02-26T07:11:58;5.40;99.90
19206;DHT22;59358;52.134;5.596;2024-02-26T07:14:26;5.50;99.90
19206;DHT22;59358;52.134;5.596;2024-02-26T07:16:53;5.40;99.90
19206;DHT22;59358;52.134;5.596;2024-02-26T07:19:20;5.50;99.90
19206;DHT22;59358;52.134;5.596;2024-02-26T07:21:47;5.50;99.90
19206;DHT22;59358;52.134;5.596;2024-02-26T07:24:13;5.50;99.90
19206;DHT22;59358;52.134;5.596;2024-02-26T07:26:40;5.50;99.90
19206;DHT22;59358;52.134;5.596;2024-02-26T07:29:06;5.50;99.90
19206;DHT22;59358;52.134;5.596;2024-02-26T07:31:34;5.50;99.90
19206;DHT22;59358;52.134;5.596;2024-02-26T07:34:01;5.50;99.90
19206;DHT22;59358;52.134;5.596;2024-02-26T07:36:28;5.50;99.90
19206;DHT22;59358;52.134;5.596;2024-02-26T07:38:55;5.50;99.90
19206;DHT22;59358;52.134;5.596;2024-02-26T07:41:22;5.50;99.90
19206;DHT22;59358;52.134;5.596;2024-02-26T07:43:49;5.60;99.90
19206;DHT22;59358;52.134;5.596;2024-02-26T07:46:15;5.50;99.90
19206;DHT22;59358;52.134;5.596;2024-02-26T07:48:44;5.50;99.90
19206;DHT22;59358;52.134;5.596;2024-02-26T07:51:12;5.50;99.90
19206;DHT22;59358;52.134;5.596;2024-02-26T07:53:39;5.50;99.90
19206;DHT22;59358;52.134;5.596;2024-02-26T07:56:06;5.50;99.90
19206;DHT22;59358;52.134;5.596;2024-02-26T07:58:33;5.50;99.90
19206;DHT22;59358;52.134;5.596;2024-02-26T08:01:00;5.50;99.90
19206;DHT22;59358;52.134;5.596;2024-02-26T08:03:26;5.50;99.90
19206;DHT22;59358;52.134;5.596;2024-02-26T08:05:55;5.60;99.90
19206;DHT22;59358;52.134;5.596;2024-02-26T08:08:22;5.60;99.90
19206;DHT22;59358;52.134;5.596;2024-02-26T08:10:48;5.60;99.90
19206;DHT22;59358;52.134;5.596;2024-02-26T08:13:15;5.60;99.90
19206;DHT22;59358;52.134;5.596;2024-02-26T08:15:42;5.60;99.90
19206;DHT22;59358;52.134;5.596;2024-02-26T08:18:09;5.70;99.90
19206;DHT22;59358;52.134;5.596;2024-02-26T08:20:36;5.70;99.90
19206;DHT22;59358;52.134;5.596;2024-02-26T08:23:04;5.70;99.90
19206;DHT22;59358;52.134;5.596;2024-02-26T08:25:31;5.70;99.90
19206;DHT22;59358;52.134;5.596;2024-02-26T08:27:58;5.70;99.90
19206;DHT22;59358;52.134;5.596;2024-02-26T08:30:24;5.70;99.90
19206;DHT22;59358;52.134;5.596;2024-02-26T08:32:51;5.70;99.90
19206;DHT22;59358;52.134;5.596;2024-02-26T08:35:19;5.70;99.90
19206;DHT22;59358;52.134;5.596;2024-02-26T08:37:46;5.70;99.90
19206;DHT22;59358;52.134;5.596;2024-02-26T08:40:14;5.70;99.90
19206;DHT22;59358;52.134;5.596;2024-02-26T08:42:41;5.70;99.90
19206;DHT22;59358;52.134;5.596;2024-02-26T08:45:08;5.70;99.90
19206;DHT22;59358;52.134;5.596;2024-02-26T08:47:36;5.80;99.90
19206;DHT22;59358;52.134;5.596;2024-02-26T08:50:04;5.80;99.90
19206;DHT22;59358;52.134;5.596;2024-02-26T08:52:31;5.70;99.90
19206;DHT22;59358;52.134;5.596;2024-02-26T08:54:58;5.70;99.90
19206;DHT22;59358;52.134;5.596;2024-02-26T08:57:26;5.70;99.90
19206;DHT22;59358;52.134;5.596;2024-02-26T08:59:53;5.70;99.90
19206;DHT22;59358;52.134;5.596;2024-02-26T09:02:20;5.70;99.90
19206;DHT22;59358;52.134;5.596;2024-02-26T09:04:47;5.70;99.90
19206;DHT22;59358;52.134;5.596;2024-02-26T09:07:13;5.60;99.90
19206;DHT22;59358;52.134;5.596;2024-02-26T09:09:40;5.60;99.90
19206;DHT22;59358;52.134;5.596;2024-02-26T09:12:07;5.60;99.90
19206;DHT22;59358;52.134;5.596;2024-02-26T09:14:36;5.60;99.90
19206;DHT22;59358;52.134;5.596;2024-02-26T09:17:03;5.60;99.90
19206;DHT22;59358;52.134;5.596;2024-02-26T09:19:31;5.60;99.90
19206;DHT22;59358;52.134;5.596;2024-02-26T09:21:58;5.60;99.90
19206;DHT22;59358;52.134;5.596;2024-02-26T09:24:26;5.60;99.90
19206;DHT22;59358;52.134;5.596;2024-02-26T09:26:53;5.70;99.90
19206;DHT22;59358;52.134;5.596;2024-02-26T09:29:19;5.70;99.90
19206;DHT22;59358;52.134;5.596;2024-02-26T09:31:48;5.70;99.90
19206;DHT22;59358;52.134;5.596;2024-02-26T09:34:14;5.70;99.90
19206;DHT22;59358;52.134;5.596;2024-02-26T09:36:42;5.80;99.90
19206;DHT22;59358;52.134;5.596;2024-02-26T09:39:10;5.80;99.90
19206;DHT22;59358;52.134;5.596;2024-02-26T09:41:37;5.80;99.90
19206;DHT22;59358;52.134;5.596;2024-02-26T09:44:05;5.80;99.90
19206;DHT22;59358;52.134;5.596;2024-02-26T09:46:32;5.80;99.90
19206;DHT22;59358;52.134;5.596;2024-02-26T09:49:00;5.80;99.90
19206;DHT22;59358;52.134;5.596;2024-02-26T09:51:28;5.80;99.90
19206;DHT22;59358;52.134;5.596;2024-02-26T09:53:56;5.90;99.90
19206;DHT22;59358;52.134;5.596;2024-02-26T09:56:26;5.90;99.90
19206;DHT22;59358;52.134;5.596;2024-02-26T09:58:54;5.90;99.90
19206;DHT22;59358;52.134;5.596;2024-02-26T10:01:22;5.90;99.90
19206;DHT22;59358;52.134;5.596;2024-02-26T10:03:54;5.90;99.90
19206;DHT22;59358;52.134;5.596;2024-02-26T10:06:24;5.90;99.90
19206;DHT22;59358;52.134;5.596;2024-02-26T10:08:53;5.80;99.90
19206;DHT22;59358;52.134;5.596;2024-02-26T10:11:21;5.80;99.90
19206;DHT22;59358;52.134;5.596;2024-02-26T10:13:48;5.80;99.90
19206;DHT22;59358;52.134;5.596;2024-02-26T10:16:16;5.80;99.90
19206;DHT22;59358;52.134;5.596;2024-02-26T10:18:46;5.90;99.90
19206;DHT22;59358;52.134;5.596;2024-02-26T10:21:13;5.90;99.90
19206;DHT22;59358;52.134;5.596;2024-02-26T10:23:43;5.90;99.90
19206;DHT22;59358;52.134;5.596;2024-02-26T10:26:10;6.00;99.90
19206;DHT22;59358;52.134;5.596;2024-02-26T10:28:39;6.00;99.90
19206;DHT22;59358;52.134;5.596;2024-02-26T10:31:06;6.10;99.90
19206;DHT22;59358;52.134;5.596;2024-02-26T10:33:33;6.00;99.90
19206;DHT22;59358;52.134;5.596;2024-02-26T10:36:01;6.00;99.90
19206;DHT22;59358;52.134;5.596;2024-02-26T10:38:28;5.90;99.90
19206;DHT22;59358;52.134;5.596;2024-02-26T10:40:57;6.00;99.90
19206;DHT22;59358;52.134;5.596;2024-02-26T10:43:25;6.00;99.90
19206;DHT22;59358;52.134;5.596;2024-02-26T10:45:52;6.00;99.90
19206;DHT22;59358;52.134;5.596;2024-02-26T10:48:19;6.00;99.90
19206;DHT22;59358;52.134;5.596;2024-02-26T10:50:46;6.00;99.90
19206;DHT22;59358;52.134;5.596;2024-02-26T10:53:17;6.00;99.90
19206;DHT22;59358;52.134;5.596;2024-02-26T10:55:49;6.10;99.90
19206;DHT22;59358;52.134;5.596;2024-02-26T10:58:18;6.10;99.90
19206;DHT22;59358;52.134;5.596;2024-02-26T11:00:46;6.10;99.90
19206;DHT22;59358;52.134;5.596;2024-02-26T11:03:15;6.10;99.90
19206;DHT22;59358;52.134;5.596;2024-02-26T11:05:43;6.10;99.90
19206;DHT22;59358;52.134;5.596;2024-02-26T11:08:11;6.10;99.90
19206;DHT22;59358;52.134;5.596;2024-02-26T11:10:38;6.10;99.90
19206;DHT22;59358;52.134;5.596;2024-02-26T11:13:09;6.10;99.90
19206;DHT22;59358;52.134;5.596;2024-02-26T11:15:39;6.10;99.90
19206;DHT22;59358;52.134;5.596;2024-02-26T11:18:08;6.20;99.90
19206;DHT22;59358;52.134;5.596;2024-02-26T11:20:38;6.20;99.90
19206;DHT22;59358;52.134;5.596;2024-02-26T11:23:07;6.20;99.90
19206;DHT22;59358;52.134;5.596;2024-02-26T11:25:35;6.20;99.90
19206;DHT22;59358;52.134;5.596;2024-02-26T11:28:05;6.20;99.90
19206;DHT22;59358;52.134;5.596;2024-02-26T11:30:35;6.30;99.90
19206;DHT22;59358;52.134;5.596;2024-02-26T11:33:06;6.20;99.90
19206;DHT22;59358;52.134;5.596;2024-02-26T11:35:34;6.20;99.90
19206;DHT22;59358;52.134;5.596;2024-02-26T11:38:03;6.30;99.90
19206;DHT22;59358;52.134;5.596;2024-02-26T11:40:33;6.30;99.90
19206;DHT22;59358;52.134;5.596;2024-02-26T11:43:00;6.30;99.90
19206;DHT22;59358;52.134;5.596;2024-02-26T11:45:47;6.30;99.90
19206;DHT22;59358;52.134;5.596;2024-02-26T11:48:19;6.30;99.90
19206;DHT22;59358;52.134;5.596;2024-02-26T11:50:48;6.30;99.90
19206;DHT22;59358;52.134;5.596;2024-02-26T11:53:23;6.40;99.90
19206;DHT22;59358;52.134;5.596;2024-02-26T11:59:01;6.40;99.90
19206;DHT22;59358;52.134;5.596;2024-02-26T12:01:37;6.30;99.90
19206;DHT22;59358;52.134;5.596;2024-02-26T12:04:06;6.40;99.90
19206;DHT22;59358;52.134;5.596;2024-02-26T12:06:41;6.40;99.90
19206;DHT22;59358;52.134;5.596;2024-02-26T12:09:08;6.30;99.90
19206;DHT22;59358;52.134;5.596;2024-02-26T12:11:37;6.30;99.90
19206;DHT22;59358;52.134;5.596;2024-02-26T12:14:05;6.20;99.90
19206;DHT22;59358;52.134;5.596;2024-02-26T12:16:37;6.20;99.90
19206;DHT22;59358;52.134;5.596;2024-02-26T12:19:07;6.10;99.90
19206;DHT22;59358;52.134;5.596;2024-02-26T12:21:34;6.20;99.90
19206;DHT22;59358;52.134;5.596;2024-02-26T12:24:12;6.20;99.90
19206;DHT22;59358;52.134;5.596;2024-02-26T12:26:39;6.20;99.90
19206;DHT22;59358;52.134;5.596;2024-02-26T12:29:06;6.20;99.90
19206;DHT22;59358;52.134;5.596;2024-02-26T12:31:33;6.20;99.90
19206;DHT22;59358;52.134;5.596;2024-02-26T12:34:02;6.20;99.90
19206;DHT22;59358;52.134;5.596;2024-02-26T12:36:31;6.20;99.90
19206;DHT22;59358;52.134;5.596;2024-02-26T12:38:58;6.20;99.90
19206;DHT22;59358;52.134;5.596;2024-02-26T12:41:26;6.20;99.90
19206;DHT22;59358;52.134;5.596;2024-02-26T12:43:53;6.30;99.90
19206;DHT22;59358;52.134;5.596;2024-02-26T12:46:21;6.30;99.90
19206;DHT22;59358;52.134;5.596;2024-02-26T12:48:48;6.30;99.90
19206;DHT22;59358;52.134;5.596;2024-02-26T12:51:16;6.30;99.90
19206;DHT22;59358;52.134;5.596;2024-02-26T12:53:45;6.40;99.90
19206;DHT22;59358;52.134;5.596;2024-02-26T12:56:12;6.30;99.90
19206;DHT22;59358;52.134;5.596;2024-02-26T12:58:39;6.30;99.90
19206;DHT22;59358;52.134;5.596;2024-02-26T13:01:06;6.30;99.90
19206;DHT22;59358;52.134;5.596;2024-02-26T13:03:35;6.30;99.90
19206;DHT22;59358;52.134;5.596;2024-02-26T13:06:02;6.30;99.90
19206;DHT22;59358;52.134;5.596;2024-02-26T13:08:31;6.40;99.90
19206;DHT22;59358;52.134;5.596;2024-02-26T13:11:00;6.40;99.90
19206;DHT22;59358;52.134;5.596;2024-02-26T13:13:28;6.40;99.90
19206;DHT22;59358;52.134;5.596;2024-02-26T13:16:01;6.40;99.90
19206;DHT22;59358;52.134;5.596;2024-02-26T13:18:29;6.40;99.90
19206;DHT22;59358;52.134;5.596;2024-02-26T13:21:09;6.30;99.90
19206;DHT22;59358;52.134;5.596;2024-02-26T13:23:37;6.40;99.90
19206;DHT22;59358;52.134;5.596;2024-02-26T13:26:05;6.40;99.90
19206;DHT22;59358;52.134;5.596;2024-02-26T13:28:32;6.40;99.90
19206;DHT22;59358;52.134;5.596;2024-02-26T13:31:00;6.40;99.90
19206;DHT22;59358;52.134;5.596;2024-02-26T13:33:29;6.40;99.90
19206;DHT22;59358;52.134;5.596;2024-02-26T13:35:57;6.50;99.90
19206;DHT22;59358;52.134;5.596;2024-02-26T13:38:24;6.50;99.90
19206;DHT22;59358;52.134;5.596;2024-02-26T13:40:52;6.50;99.90
19206;DHT22;59358;52.134;5.596;2024-02-26T13:43:20;6.50;99.90
19206;DHT22;59358;52.134;5.596;2024-02-26T13:45:47;6.60;99.90
19206;DHT22;59358;52.134;5.596;2024-02-26T13:48:14;6.60;99.90
19206;DHT22;59358;52.134;5.596;2024-02-26T13:50:41;6.60;99.90
19206;DHT22;59358;52.134;5.596;2024-02-26T13:53:11;6.60;99.90
19206;DHT22;59358;52.134;5.596;2024-02-26T13:55:38;6.60;99.90
19206;DHT22;59358;52.134;5.596;2024-02-26T13:58:08;6.70;99.90
19206;DHT22;59358;52.134;5.596;2024-02-26T14:00:36;6.70;99.90
19206;DHT22;59358;52.134;5.596;2024-02-26T14:03:03;6.70;99.90
19206;DHT22;59358;52.134;5.596;2024-02-26T14:05:30;6.70;99.90
19206;DHT22;59358;52.134;5.596;2024-02-26T14:07:57;6.70;99.90
19206;DHT22;59358;52.134;5.596;2024-02-26T14:10:23;6.70;99.90
19206;DHT22;59358;52.134;5.596;2024-02-26T14:12:50;6.70;99.90
19206;DHT22;59358;52.134;5.596;2024-02-26T14:15:17;6.80;99.90
19206;DHT22;59358;52.134;5.596;2024-02-26T14:17:45;6.80;99.90
19206;DHT22;59358;52.134;5.596;2024-02-26T14:20:19;6.80;99.90
19206;DHT22;59358;52.134;5.596;2024-02-26T14:22:46;6.90;99.90
19206;DHT22;59358;52.134;5.596;2024-02-26T14:25:13;6.90;99.90
19206;DHT22;59358;52.134;5.596;2024-02-26T14:27:39;6.90;99.90
19206;DHT22;59358;52.134;5.596;2024-02-26T14:30:07;6.90;99.90
19206;DHT22;59358;52.134;5.596;2024-02-26T14:32:34;6.90;99.90
19206;DHT22;59358;52.134;5.596;2024-02-26T14:35:05;6.90;99.90
19206;DHT22;59358;52.134;5.596;2024-02-26T14:37:33;6.90;99.90
19206;DHT22;59358;52.134;5.596;2024-02-26T14:40:00;6.90;99.90
19206;DHT22;59358;52.134;5.596;2024-02-26T14:42:28;6.90;99.90
19206;DHT22;59358;52.134;5.596;2024-02-26T14:44:54;6.90;99.90
19206;DHT22;59358;52.134;5.596;2024-02-26T14:47:21;6.90;99.90
19206;DHT22;59358;52.134;5.596;2024-02-26T14:49:48;6.90;99.90
19206;DHT22;59358;52.134;5.596;2024-02-26T14:52:18;6.80;99.90
19206;DHT22;59358;52.134;5.596;2024-02-26T14:54:45;6.80;99.90
19206;DHT22;59358;52.134;5.596;2024-02-26T14:57:12;6.90;99.90
19206;DHT22;59358;52.134;5.596;2024-02-26T14:59:39;6.90;99.90
19206;DHT22;59358;52.134;5.596;2024-02-26T15:02:06;6.80;99.90
19206;DHT22;59358;52.134;5.596;2024-02-26T15:04:35;6.90;99.90
19206;DHT22;59358;52.134;5.596;2024-02-26T15:07:02;6.90;99.90
19206;DHT22;59358;52.134;5.596;2024-02-26T15:09:30;6.90;99.90
19206;DHT22;59358;52.134;5.596;2024-02-26T15:11:57;6.90;99.90
19206;DHT22;59358;52.134;5.596;2024-02-26T15:14:24;6.90;99.90
19206;DHT22;59358;52.134;5.596;2024-02-26T15:16:51;6.90;99.90
19206;DHT22;59358;52.134;5.596;2024-02-26T15:19:18;6.90;99.90
19206;DHT22;59358;52.134;5.596;2024-02-26T15:21:45;6.90;99.90
19206;DHT22;59358;52.134;5.596;2024-02-26T15:24:12;6.90;99.90
19206;DHT22;59358;52.134;5.596;2024-02-26T15:26:43;6.90;99.90
19206;DHT22;59358;52.134;5.596;2024-02-26T15:29:10;7.00;99.90
19206;DHT22;59358;52.134;5.596;2024-02-26T15:31:37;7.00;99.90
19206;DHT22;59358;52.134;5.596;2024-02-26T15:34:04;7.00;99.90
19206;DHT22;59358;52.134;5.596;2024-02-26T15:36:31;6.90;99.90
19206;DHT22;59358;52.134;5.596;2024-02-26T15:38:57;6.90;99.90
19206;DHT22;59358;52.134;5.596;2024-02-26T15:41:24;6.90;99.90
19206;DHT22;59358;52.134;5.596;2024-02-26T15:43:52;6.90;99.90
19206;DHT22;59358;52.134;5.596;2024-02-26T15:46:19;6.90;99.90
19206;DHT22;59358;52.134;5.596;2024-02-26T15:48:46;6.90;99.90
19206;DHT22;59358;52.134;5.596;2024-02-26T15:51:20;6.90;99.90